createdAt,value
2023-11-01T07:26:26.287Z,18.30
2023-11-01T07:28:54.816Z,20.20
2023-11-01T07:31:26.510Z,25.27
2023-11-01T07:33:55.184Z,24.63
2023-11-01T07:36:23.719Z,25.55
2023-11-01T07:38:52.353Z,23.23
2023-11-01T07:41:20.837Z,16.92
2023-11-01T07:43:49.335Z,17.65
2023-11-01T07:46:17.836Z,17.88
2023-11-01T07:48:46.377Z,22.60
2023-11-01T07:51:14.794Z,29.65
2023-11-01T07:53:43.241Z,20.23
2023-11-01T07:56:11.940Z,19.85
2023-11-01T07:58:40.495Z,16.67
2023-11-01T08:01:08.933Z,20.13
2023-11-01T08:03:39.125Z,19.85
2023-11-01T08:08:03.878Z,21.80
2023-11-01T08:10:32.433Z,17.15
2023-11-01T08:13:01.638Z,22.98
2023-11-01T08:15:30.064Z,18.95
2023-11-01T08:17:58.625Z,20.00
2023-11-01T08:20:27.320Z,14.77
2023-11-01T08:22:55.614Z,20.83
2023-11-01T08:25:24.600Z,18.60
2023-11-01T08:27:53.336Z,25.50
2023-11-01T08:30:21.986Z,14.18
2023-11-01T08:32:52.741Z,10.18
2023-11-01T08:35:21.477Z,14.68
2023-11-01T08:37:50.384Z,16.02
2023-11-01T08:40:19.235Z,14.07
2023-11-01T08:42:47.766Z,16.58
2023-11-01T08:45:16.481Z,18.60
2023-11-01T08:47:45.771Z,19.70
2023-11-01T08:50:15.410Z,12.02
2023-11-01T08:52:45.625Z,16.42
2023-11-01T08:55:17.585Z,16.95
2023-11-01T09:00:15.237Z,15.95
2023-11-01T09:02:44.118Z,19.98
2023-11-01T09:05:12.818Z,17.40
2023-11-01T09:07:42.158Z,12.50
2023-11-01T09:10:10.974Z,25.42
2023-11-01T09:12:39.373Z,19.73
2023-11-01T09:15:08.697Z,33.15
2023-11-01T09:17:37.224Z,21.50
2023-11-01T09:20:06.057Z,33.22
2023-11-01T09:22:35.379Z,28.17
2023-11-01T09:25:04.498Z,19.60
2023-11-01T09:27:32.977Z,43.63
2023-11-01T09:30:01.765Z,21.80
2023-11-01T09:32:30.681Z,18.25
2023-11-01T09:34:59.352Z,25.92
2023-11-01T09:37:27.746Z,30.25
2023-11-01T09:39:56.417Z,20.85
2023-11-01T09:42:24.973Z,19.30
2023-11-01T09:44:57.915Z,27.77
2023-11-01T09:47:30.471Z,23.92
2023-11-01T09:49:59.304Z,31.15
2023-11-01T09:52:27.877Z,47.92
2023-11-01T09:54:56.355Z,30.70
2023-11-01T09:57:27.278Z,29.92
2023-11-01T09:59:56.694Z,17.77
2023-11-01T10:02:25.951Z,17.65
2023-11-01T10:04:55.191Z,19.23
2023-11-01T10:07:31.137Z,16.55
2023-11-01T10:09:59.724Z,20.00
2023-11-01T10:12:28.248Z,19.77
2023-11-01T10:14:56.889Z,25.75
2023-11-01T10:17:25.932Z,30.75
2023-11-01T10:19:54.400Z,11.00
2023-11-01T10:22:22.927Z,11.00
2023-11-01T10:24:51.353Z,12.57
2023-11-01T10:27:19.996Z,24.13
2023-11-01T10:29:48.893Z,12.68
2023-11-01T10:32:17.718Z,13.50
2023-11-01T10:34:46.274Z,15.23
2023-11-01T10:37:19.168Z,14.23
2023-11-01T10:41:12.480Z,12.70
2023-11-01T10:43:41.047Z,12.43
2023-11-01T10:46:10.398Z,11.15
2023-11-01T10:48:38.778Z,14.88
2023-11-01T10:51:07.975Z,13.55
2023-11-01T10:53:37.492Z,15.00
2023-11-01T10:56:06.903Z,11.18
2023-11-01T10:58:41.715Z,15.30
2023-11-01T11:01:24.894Z,10.45
2023-11-01T11:04:04.297Z,20.55
2023-11-01T11:06:49.726Z,28.10
2023-11-01T11:09:23.130Z,10.10
2023-11-01T11:12:17.164Z,13.60
2023-11-01T11:14:48.679Z,22.20
2023-11-01T11:17:19.119Z,17.90
2023-11-01T11:20:15.947Z,14.63
2023-11-01T11:23:02.790Z,16.70
2023-11-01T11:25:40.320Z,17.10
2023-11-01T11:28:34.798Z,18.85
2023-11-01T11:31:11.152Z,17.80
2023-11-01T11:33:48.522Z,16.30
2023-11-01T11:36:27.080Z,22.55
2023-11-01T11:39:00.109Z,16.55
2023-11-01T11:41:29.815Z,17.60
2023-11-01T11:44:18.117Z,17.60
2023-11-01T11:46:52.750Z,14.65
2023-11-01T11:49:21.162Z,16.85
2023-11-01T11:52:10.087Z,16.65
2023-11-01T11:54:39.076Z,20.48
2023-11-01T11:57:12.758Z,15.80
2023-11-01T11:59:42.174Z,29.48
2023-11-01T12:02:15.532Z,16.27
2023-11-01T12:04:46.390Z,13.43
2023-11-01T12:07:15.064Z,15.60
2023-11-01T12:09:49.208Z,12.88
2023-11-01T12:12:17.733Z,21.92
2023-11-01T12:14:46.328Z,28.00
2023-11-01T12:17:14.829Z,15.27
2023-11-01T12:19:49.349Z,10.82
2023-11-01T12:22:17.811Z,13.00
2023-11-01T12:24:46.755Z,13.35
2023-11-01T12:27:19.139Z,10.68
2023-11-01T12:29:48.650Z,14.35
2023-11-01T12:32:17.936Z,25.35
2023-11-01T12:34:52.567Z,13.05
2023-11-01T12:37:22.866Z,17.42
2023-11-01T12:40:15.485Z,19.27
2023-11-01T12:42:48.669Z,12.77
2023-11-01T12:45:18.813Z,15.32
2023-11-01T12:47:51.451Z,14.25
2023-11-01T12:50:26.205Z,13.18
2023-11-01T12:52:55.011Z,14.45
2023-11-01T12:55:23.598Z,20.52
2023-11-01T12:57:53.950Z,11.95
2023-11-01T13:00:23.222Z,13.80
2023-11-01T13:02:52.462Z,16.75
2023-11-01T13:05:21.027Z,15.75
2023-11-01T13:07:49.554Z,15.02
2023-11-01T13:10:18.289Z,19.48
2023-11-01T13:12:48.210Z,16.25
2023-11-01T13:15:17.920Z,14.55
2023-11-01T13:17:47.884Z,10.35
2023-11-01T13:20:16.461Z,12.50
2023-11-01T13:22:44.877Z,11.68
2023-11-01T13:25:13.372Z,27.17
2023-11-01T13:27:41.960Z,15.85
2023-11-01T13:30:10.914Z,22.20
2023-11-01T13:32:39.672Z,13.35
2023-11-01T13:35:08.455Z,15.05
2023-11-01T13:37:36.867Z,19.55
2023-11-01T13:40:05.732Z,17.33
2023-11-01T13:42:34.579Z,11.05
2023-11-01T13:45:03.118Z,10.98
2023-11-01T13:47:32.846Z,11.18
2023-11-01T13:50:01.637Z,10.18
2023-11-01T13:52:30.121Z,9.45
2023-11-01T13:54:58.742Z,8.95
2023-11-01T13:57:27.236Z,14.23
2023-11-01T13:59:55.744Z,11.02
2023-11-01T14:02:24.346Z,11.50
2023-11-01T14:04:52.760Z,12.15
2023-11-01T14:07:21.183Z,16.23
2023-11-01T14:09:49.896Z,8.85
2023-11-01T14:12:18.598Z,17.50
2023-11-01T14:14:47.184Z,15.80
2023-11-01T14:17:15.609Z,9.20
2023-11-01T14:19:44.157Z,7.72
2023-11-01T14:22:12.435Z,16.35
2023-11-01T14:24:40.977Z,10.02
2023-11-01T14:27:09.619Z,10.77
2023-11-01T14:29:38.219Z,12.20
2023-11-01T14:32:07.229Z,12.25
2023-11-01T14:34:35.868Z,8.73
2023-11-01T14:37:04.896Z,15.32
2023-11-01T14:39:35.359Z,15.65
2023-11-01T14:42:04.006Z,12.68
2023-11-01T14:44:32.603Z,24.67
2023-11-01T14:47:01.105Z,10.95
2023-11-01T14:49:29.793Z,15.98
2023-11-01T14:51:58.264Z,13.02
2023-11-01T14:54:27.244Z,13.23
2023-11-01T14:56:55.886Z,10.32
2023-11-01T14:59:24.616Z,7.97
2023-11-01T15:01:53.195Z,12.48
2023-11-01T15:04:22.131Z,9.77
2023-11-01T15:06:51.411Z,8.25
2023-11-01T15:09:19.890Z,14.27
2023-11-01T15:11:50.009Z,12.75
2023-11-01T15:14:18.723Z,10.15
2023-11-01T15:16:47.168Z,9.15
2023-11-01T15:19:15.831Z,9.98
2023-11-01T15:21:45.015Z,10.10
2023-11-01T15:24:16.206Z,13.63
2023-11-01T15:26:45.385Z,15.20
2023-11-01T15:29:13.952Z,21.23
2023-11-01T15:31:42.716Z,10.52
2023-11-01T15:34:11.545Z,10.75
2023-11-01T15:36:40.205Z,11.07
2023-11-01T15:39:08.711Z,9.55
2023-11-01T15:41:39.017Z,13.35
2023-11-01T15:44:10.831Z,9.77
2023-11-01T15:46:41.471Z,10.40
2023-11-01T15:49:10.805Z,17.83
2023-11-01T15:51:39.577Z,12.60
2023-11-01T15:54:08.344Z,14.85
2023-11-01T15:56:40.500Z,15.60
2023-11-01T15:59:09.624Z,13.73
2023-11-01T16:01:38.074Z,14.48
2023-11-01T16:04:08.347Z,6.82
2023-11-01T16:06:37.419Z,10.10
2023-11-01T16:09:05.988Z,23.60
2023-11-01T16:11:34.789Z,10.70
2023-11-01T16:14:03.551Z,10.00
2023-11-01T16:16:32.395Z,7.75
2023-11-01T16:19:00.781Z,9.95
2023-11-01T16:21:30.667Z,11.00
2023-11-01T16:23:59.258Z,14.38
2023-11-01T16:26:27.906Z,13.32
2023-11-01T16:28:56.390Z,13.18
2023-11-01T16:31:24.879Z,15.38
2023-11-01T16:33:56.387Z,21.80
2023-11-01T16:36:25.148Z,20.10
2023-11-01T16:38:53.942Z,15.48
2023-11-01T16:41:22.436Z,19.15
2023-11-01T16:43:50.981Z,8.25
2023-11-01T16:46:19.319Z,10.10
2023-11-01T16:48:48.986Z,15.07
2023-11-01T16:51:18.013Z,10.20
2023-11-01T16:53:46.454Z,16.02
2023-11-01T16:56:15.027Z,26.95
2023-11-01T16:58:43.542Z,12.73
2023-11-01T17:01:11.923Z,21.02
2023-11-01T17:03:42.191Z,12.60
2023-11-01T17:06:10.784Z,15.40
2023-11-01T17:08:39.643Z,10.80
2023-11-01T17:11:12.885Z,11.90
2023-11-01T17:13:41.814Z,11.43
2023-11-01T17:16:10.264Z,12.30
2023-11-01T17:18:39.783Z,13.18
2023-11-01T17:21:08.809Z,12.02
2023-11-01T17:23:41.000Z,11.35
2023-11-01T17:26:29.097Z,16.95
2023-11-01T17:29:01.378Z,17.10
2023-11-01T17:31:47.800Z,14.35
2023-11-01T17:34:31.735Z,23.83
2023-11-01T17:37:02.147Z,18.83
2023-11-01T17:39:40.018Z,35.85
2023-11-01T17:42:11.533Z,42.08
2023-11-01T17:44:40.085Z,24.10
2023-11-01T17:47:11.029Z,50.35
2023-11-01T17:49:48.560Z,19.35
2023-11-01T17:52:28.468Z,15.98
2023-11-01T17:54:57.923Z,29.48
2023-11-01T17:57:26.689Z,23.77
2023-11-01T17:59:56.469Z,15.65
2023-11-01T18:02:34.003Z,14.35
2023-11-01T18:05:02.949Z,12.23
2023-11-01T18:07:31.247Z,19.02
2023-11-01T18:09:59.687Z,14.63
2023-11-01T18:14:44.099Z,21.42
2023-11-01T18:17:12.921Z,27.30
2023-11-01T18:19:42.191Z,15.63
2023-11-01T18:22:41.556Z,17.55
2023-11-01T18:25:54.601Z,13.63
2023-11-01T18:28:23.090Z,14.77
2023-11-01T18:30:51.589Z,16.50
2023-11-01T18:33:20.485Z,17.38
2023-11-01T18:35:49.108Z,31.65
2023-11-01T18:38:48.569Z,22.92
2023-11-01T18:41:17.974Z,19.88
2023-11-01T18:43:46.616Z,35.38
2023-11-01T18:46:15.155Z,27.70
2023-11-01T18:48:44.916Z,22.17
2023-11-01T18:51:36.382Z,22.70
2023-11-01T18:54:05.093Z,30.13
2023-11-01T18:56:42.368Z,54.13
2023-11-01T18:59:13.231Z,28.27
2023-11-01T19:01:41.881Z,32.22
2023-11-01T19:04:12.932Z,19.50
2023-11-01T19:06:42.925Z,22.88
2023-11-01T19:09:11.659Z,31.05
2023-11-01T19:11:40.201Z,62.45
2023-11-01T19:14:08.785Z,77.00
2023-11-01T19:16:37.316Z,81.97
2023-11-01T19:19:05.996Z,66.88
2023-11-01T19:21:34.518Z,54.58
2023-11-01T19:24:03.117Z,70.93
2023-11-01T19:26:31.530Z,70.43
2023-11-01T19:28:59.981Z,44.20
2023-11-01T19:31:28.464Z,36.40
2023-11-01T19:33:57.009Z,32.67
2023-11-01T19:36:25.562Z,37.00
2023-11-01T19:38:53.892Z,29.77
2023-11-01T19:41:22.671Z,37.55
2023-11-01T19:43:51.410Z,61.28
2023-11-01T19:46:19.940Z,107.72
2023-11-01T19:48:48.457Z,68.22
2023-11-01T19:51:17.163Z,70.72
2023-11-01T19:53:45.605Z,188.80
2023-11-01T19:56:14.318Z,312.38
2023-11-01T19:58:43.017Z,352.10
2023-11-01T20:01:11.507Z,370.63
2023-11-01T20:03:40.088Z,279.40
2023-11-01T20:06:08.890Z,140.25
2023-11-01T20:08:37.376Z,124.25
2023-11-01T20:11:06.475Z,151.15
2023-11-01T20:13:34.829Z,138.65
2023-11-01T20:16:03.570Z,233.23
2023-11-01T20:18:32.070Z,358.50
2023-11-01T20:21:00.389Z,317.15
2023-11-01T20:23:28.909Z,297.30
2023-11-01T20:25:57.451Z,295.33
2023-11-01T20:28:26.684Z,254.27
2023-11-01T20:30:55.045Z,221.88
2023-11-01T20:33:23.657Z,264.45
2023-11-01T20:35:52.374Z,255.65
2023-11-01T20:38:20.778Z,281.20
2023-11-01T20:40:49.148Z,316.85
2023-11-01T20:43:17.610Z,355.98
2023-11-01T20:45:48.384Z,250.50
2023-11-01T20:48:17.243Z,183.15
2023-11-01T20:50:45.924Z,113.93
2023-11-01T20:53:14.603Z,71.78
2023-11-01T20:55:43.004Z,49.95
2023-11-01T20:58:11.621Z,50.55
2023-11-01T21:00:40.036Z,78.88
2023-11-01T21:03:09.192Z,58.95
2023-11-01T21:05:37.891Z,77.82
2023-11-01T21:08:07.003Z,88.20
2023-11-01T21:10:35.637Z,67.13
2023-11-01T21:13:04.463Z,69.15
2023-11-01T21:15:33.143Z,56.05
2023-11-01T21:18:02.524Z,64.45
2023-11-01T21:20:31.405Z,63.75
2023-11-01T21:22:59.901Z,70.07
2023-11-01T21:25:28.762Z,66.97
2023-11-01T21:27:57.690Z,55.97
2023-11-01T21:30:26.483Z,72.03
2023-11-01T21:32:55.056Z,66.57
2023-11-01T21:35:31.679Z,71.95
2023-11-01T21:38:07.561Z,69.50
2023-11-01T21:40:36.413Z,101.43
2023-11-01T21:43:06.022Z,100.32
2023-11-01T21:45:52.008Z,101.93
2023-11-01T21:48:29.641Z,104.45
2023-11-01T21:51:04.141Z,94.97
2023-11-01T21:53:34.574Z,90.72
2023-11-01T21:56:03.116Z,87.60
2023-11-01T21:58:31.421Z,101.85
2023-11-01T22:01:01.608Z,103.55
2023-11-01T22:03:46.625Z,86.38
2023-11-01T22:06:18.157Z,97.60
2023-11-01T22:09:06.466Z,90.53
2023-11-01T22:11:48.284Z,89.10
2023-11-01T22:14:32.048Z,83.05
2023-11-01T22:17:05.101Z,78.57
2023-11-01T22:19:38.521Z,75.93
2023-11-01T22:22:08.917Z,68.18
2023-11-01T22:24:42.567Z,66.72
2023-11-01T22:27:13.219Z,64.47
2023-11-01T22:29:47.853Z,75.45
2023-11-01T22:32:19.382Z,76.38
2023-11-01T22:34:49.000Z,57.88
2023-11-01T22:37:28.562Z,66.53
2023-11-01T22:40:02.513Z,77.78
2023-11-01T22:42:32.760Z,69.20
2023-11-01T22:45:03.806Z,77.15
2023-11-01T22:47:33.727Z,67.38
2023-11-01T22:50:02.423Z,67.85
2023-11-01T22:52:30.837Z,78.85
2023-11-01T22:54:59.205Z,76.78
2023-11-01T22:59:51.395Z,84.53
2023-11-01T23:02:19.972Z,62.30
2023-11-01T23:04:48.404Z,76.50
2023-11-01T23:07:17.009Z,70.15
2023-11-01T23:09:45.554Z,88.30
2023-11-01T23:12:14.021Z,82.43
2023-11-01T23:14:42.474Z,77.60
2023-11-01T23:17:11.183Z,112.90
2023-11-01T23:19:39.580Z,90.85
2023-11-01T23:22:08.142Z,83.07
2023-11-01T23:24:36.852Z,100.10
2023-11-01T23:27:06.378Z,93.22
2023-11-01T23:29:37.878Z,75.90
2023-11-01T23:32:13.135Z,89.25
2023-11-01T23:34:48.198Z,99.97
2023-11-01T23:37:19.682Z,85.43
2023-11-01T23:39:48.555Z,85.40
2023-11-01T23:42:18.540Z,96.15
2023-11-01T23:44:47.484Z,100.57
2023-11-01T23:47:25.298Z,77.95
2023-11-01T23:50:00.574Z,76.18
2023-11-01T23:52:31.184Z,75.00
2023-11-01T23:55:00.499Z,76.65
2023-11-01T23:57:32.005Z,85.60
